Time;durP1;ratioP1;P1;durP2;ratioP2;P2;SDS_P1;SDS_P2;PMS_P1;PMS_P2;Temp;Humidity;BMP_temperature;BMP_pressure;BME280_temperature;BME280_humidity;BME280_pressure;Samples;Min_cycle;Max_cycle;Signal;HPM_P1;HPM_P2
2022/09/21 00:00:37;;;;;;;;;;;10.90;99.90;;;;;;5134699;27;19946;-79
2022/09/21 00:03:03;;;;;;;;;;;10.90;99.90;;;;;;5156226;27;20000;-79
2022/09/21 00:05:29;;;;;;;;;;;10.90;99.90;;;;;;5128606;27;20020;-79
2022/09/21 00:07:54;;;;;;;;;;;10.90;99.90;;;;;;5139981;27;20027;-79
2022/09/21 00:10:20;;;;;;;;;;;11.00;99.90;;;;;;5130754;27;19930;-79
2022/09/21 00:12:47;;;;;;;;;;;11.00;99.90;;;;;;5124154;27;19966;-80
2022/09/21 00:15:14;;;;;;;;;;;10.90;99.90;;;;;;5157354;27;19923;-79
2022/09/21 00:17:40;;;;;;;;;;;10.90;99.90;;;;;;5129036;27;20319;-79
2022/09/21 00:20:06;;;;;;;;;;;10.90;99.90;;;;;;5132243;27;19929;-79
2022/09/21 00:22:32;;;;;;;;;;;10.90;99.90;;;;;;5141953;27;19923;-79
2022/09/21 00:25:00;;;;;;;;;;;10.80;99.90;;;;;;5139354;27;19923;-79
2022/09/21 00:27:28;;;;;;;;;;;10.80;99.90;;;;;;5144001;27;19965;-79
2022/09/21 00:29:55;;;;;;;;;;;10.90;99.90;;;;;;5144207;27;19933;-79
2022/09/21 00:32:20;;;;;;;;;;;10.90;99.90;;;;;;5149465;27;19923;-79
2022/09/21 00:34:46;;;;;;;;;;;10.90;99.90;;;;;;5150348;27;20374;-79
2022/09/21 00:37:12;;;;;;;;;;;10.90;99.90;;;;;;5139536;27;19923;-79
2022/09/21 00:39:37;;;;;;;;;;;10.90;99.90;;;;;;5131968;27;19946;-79
2022/09/21 00:42:09;;;;;;;;;;;10.80;99.90;;;;;;5131316;27;19962;-79
2022/09/21 00:44:35;;;;;;;;;;;10.70;99.90;;;;;;5141203;27;19930;-79
2022/09/21 00:47:10;;;;;;;;;;;10.70;99.90;;;;;;5122288;27;19922;-79
2022/09/21 00:49:37;;;;;;;;;;;10.60;99.90;;;;;;5123828;27;19996;-79
2022/09/21 00:52:04;;;;;;;;;;;10.60;99.90;;;;;;5125104;27;19930;-79
2022/09/21 00:54:40;;;;;;;;;;;10.50;99.90;;;;;;5138645;27;19970;-79
2022/09/21 00:57:06;;;;;;;;;;;10.50;99.90;;;;;;5121902;27;19935;-79
2022/09/21 00:59:34;;;;;;;;;;;10.40;99.90;;;;;;5106288;27;19975;-79
2022/09/21 01:02:00;;;;;;;;;;;10.30;99.90;;;;;;5124534;27;19923;-79
2022/09/21 01:04:27;;;;;;;;;;;10.30;99.90;;;;;;5136871;27;20267;-79
2022/09/21 01:06:53;;;;;;;;;;;10.30;99.90;;;;;;5153821;27;20014;-79
2022/09/21 01:09:19;;;;;;;;;;;10.30;99.90;;;;;;5144319;27;19966;-79
2022/09/21 01:11:47;;;;;;;;;;;10.30;99.90;;;;;;5139991;27;19977;-79
2022/09/21 01:14:25;;;;;;;;;;;10.20;99.90;;;;;;5139882;27;19962;-79
2022/09/21 01:16:50;;;;;;;;;;;10.10;99.90;;;;;;5138724;27;20270;-79
2022/09/21 01:19:25;;;;;;;;;;;10.10;99.90;;;;;;5140348;27;19923;-79
2022/09/21 01:22:00;;;;;;;;;;;10.00;99.90;;;;;;5133180;27;19944;-79
2022/09/21 01:24:38;;;;;;;;;;;10.00;99.90;;;;;;5139887;27;19926;-79
2022/09/21 01:27:07;;;;;;;;;;;9.90;99.90;;;;;;5159191;27;19926;-79
2022/09/21 01:29:32;;;;;;;;;;;9.90;99.90;;;;;;5135526;27;19929;-79
2022/09/21 01:31:58;;;;;;;;;;;9.90;99.90;;;;;;5139701;27;20009;-79
2022/09/21 01:34:30;;;;;;;;;;;9.90;99.90;;;;;;5137435;27;19926;-79
2022/09/21 01:36:58;;;;;;;;;;;9.80;99.90;;;;;;5156903;27;19927;-79
2022/09/21 01:39:25;;;;;;;;;;;9.80;99.90;;;;;;5156240;27;20318;-79
2022/09/21 01:41:51;;;;;;;;;;;9.80;99.90;;;;;;5172969;27;19923;-79
2022/09/21 01:44:18;;;;;;;;;;;9.80;99.90;;;;;;5124456;27;19969;-79
2022/09/21 01:46:45;;;;;;;;;;;9.80;99.90;;;;;;5151602;27;19968;-79
2022/09/21 01:49:13;;;;;;;;;;;9.80;99.90;;;;;;5155741;27;20278;-79
2022/09/21 01:51:42;;;;;;;;;;;9.80;99.90;;;;;;5120808;27;19981;-78
2022/09/21 01:54:13;;;;;;;;;;;9.80;99.90;;;;;;5156588;27;19922;-79
2022/09/21 01:56:45;;;;;;;;;;;9.70;99.90;;;;;;5135585;27;19929;-79
2022/09/21 01:59:15;;;;;;;;;;;9.70;99.90;;;;;;5134201;27;19967;-79
2022/09/21 02:02:01;;;;;;;;;;;9.70;99.90;;;;;;5139214;27;20323;-79
2022/09/21 02:04:26;;;;;;;;;;;9.70;99.90;;;;;;5137713;27;19926;-79
2022/09/21 02:06:52;;;;;;;;;;;9.70;99.90;;;;;;5113103;27;19971;-79
2022/09/21 02:09:18;;;;;;;;;;;9.80;99.90;;;;;;5115111;27;19923;-79
2022/09/21 02:11:44;;;;;;;;;;;9.70;99.90;;;;;;5137136;27;20018;-79
2022/09/21 02:14:21;;;;;;;;;;;9.80;99.90;;;;;;5129232;27;19984;-79
2022/09/21 02:16:55;;;;;;;;;;;9.80;99.90;;;;;;5142541;27;19923;-79
2022/09/21 02:19:41;;;;;;;;;;;9.70;99.90;;;;;;5154569;27;20271;-79
2022/09/21 02:22:29;;;;;;;;;;;9.70;99.90;;;;;;5132031;27;20261;-79
2022/09/21 02:24:56;;;;;;;;;;;9.70;99.90;;;;;;5136061;27;19933;-79
2022/09/21 02:27:40;;;;;;;;;;;9.70;99.90;;;;;;5149220;27;19930;-79
2022/09/21 02:30:19;;;;;;;;;;;9.70;99.90;;;;;;5145148;27;19922;-79
2022/09/21 02:32:52;;;;;;;;;;;9.60;99.90;;;;;;5144168;27;19965;-79
2022/09/21 02:35:30;;;;;;;;;;;9.60;99.90;;;;;;5146710;27;20354;-79
2022/09/21 02:38:07;;;;;;;;;;;9.60;99.90;;;;;;5154365;27;19922;-79
2022/09/21 02:40:39;;;;;;;;;;;9.60;99.90;;;;;;5136538;27;19927;-79
2022/09/21 02:43:07;;;;;;;;;;;9.60;99.90;;;;;;5137625;27;20396;-79
2022/09/21 02:45:41;;;;;;;;;;;9.50;99.90;;;;;;5140250;27;20065;-79
2022/09/21 02:48:19;;;;;;;;;;;9.40;99.90;;;;;;5151764;27;19975;-79
2022/09/21 02:50:49;;;;;;;;;;;9.40;99.90;;;;;;5152283;27;19927;-79
2022/09/21 02:53:17;;;;;;;;;;;9.40;99.90;;;;;;5137294;27;19927;-79
2022/09/21 02:55:44;;;;;;;;;;;9.40;99.90;;;;;;5141839;27;19923;-79
2022/09/21 02:58:13;;;;;;;;;;;9.40;99.90;;;;;;5121031;27;19937;-79
2022/09/21 03:00:39;;;;;;;;;;;9.30;99.90;;;;;;5147999;27;20359;-79
2022/09/21 03:03:18;;;;;;;;;;;9.30;99.90;;;;;;5119292;27;19934;-79
2022/09/21 03:05:47;;;;;;;;;;;9.30;99.90;;;;;;5134707;27;19949;-79
2022/09/21 03:08:13;;;;;;;;;;;9.30;99.90;;;;;;5127504;27;19923;-79
2022/09/21 03:10:39;;;;;;;;;;;9.30;99.90;;;;;;5148442;27;19930;-79
2022/09/21 03:13:08;;;;;;;;;;;9.30;99.90;;;;;;5122877;27;19952;-79
2022/09/21 03:15:34;;;;;;;;;;;9.30;99.90;;;;;;5140190;27;19930;-79
2022/09/21 03:18:00;;;;;;;;;;;9.20;99.90;;;;;;5110649;27;19923;-79
2022/09/21 03:20:26;;;;;;;;;;;9.30;99.90;;;;;;5118903;27;19923;-79
2022/09/21 03:22:51;;;;;;;;;;;9.20;99.90;;;;;;5118938;27;19967;-79
2022/09/21 03:25:17;;;;;;;;;;;9.20;99.90;;;;;;5102238;27;20367;-79
2022/09/21 03:27:42;;;;;;;;;;;9.20;99.90;;;;;;5137689;27;19923;-79
2022/09/21 03:30:08;;;;;;;;;;;9.20;99.90;;;;;;5120091;27;19931;-78
2022/09/21 03:32:34;;;;;;;;;;;9.20;99.90;;;;;;5119430;27;19947;-79
2022/09/21 03:34:59;;;;;;;;;;;9.20;99.90;;;;;;5119323;27;19930;-79
2022/09/21 03:37:25;;;;;;;;;;;9.20;99.90;;;;;;5120240;27;19946;-79
2022/09/21 03:39:50;;;;;;;;;;;9.20;99.90;;;;;;5119516;27;19967;-79
2022/09/21 03:42:16;;;;;;;;;;;9.20;99.90;;;;;;5102335;27;20282;-79
2022/09/21 03:44:41;;;;;;;;;;;9.10;99.90;;;;;;5136488;27;19960;-79
2022/09/21 03:47:07;;;;;;;;;;;9.20;99.90;;;;;;5119229;27;19945;-79
2022/09/21 03:49:33;;;;;;;;;;;9.20;99.90;;;;;;5128802;27;19923;-79
2022/09/21 03:52:00;;;;;;;;;;;9.20;99.90;;;;;;5102367;27;20324;-79
2022/09/21 03:54:25;;;;;;;;;;;9.10;99.90;;;;;;5135980;27;19927;-79
2022/09/21 03:56:51;;;;;;;;;;;9.10;99.90;;;;;;5143565;27;19923;-79
2022/09/21 03:59:16;;;;;;;;;;;9.10;99.90;;;;;;5135098;27;20021;-79
2022/09/21 04:01:43;;;;;;;;;;;9.10;99.90;;;;;;5137071;27;20335;-79
2022/09/21 04:04:09;;;;;;;;;;;9.10;99.90;;;;;;5118764;27;19927;-79
2022/09/21 04:06:34;;;;;;;;;;;9.10;99.90;;;;;;5118885;27;19974;-79
2022/09/21 04:09:01;;;;;;;;;;;9.10;99.90;;;;;;5102873;27;20346;-79
2022/09/21 04:11:27;;;;;;;;;;;9.10;99.90;;;;;;5122907;27;20006;-79
2022/09/21 04:13:55;;;;;;;;;;;9.00;99.90;;;;;;5136590;27;20005;-79
2022/09/21 04:16:24;;;;;;;;;;;9.00;99.90;;;;;;5139378;27;19972;-79
2022/09/21 04:18:50;;;;;;;;;;;9.00;99.90;;;;;;5156763;27;19922;-79
2022/09/21 04:21:16;;;;;;;;;;;8.90;99.90;;;;;;5142709;27;20426;-79
2022/09/21 04:23:42;;;;;;;;;;;8.90;99.90;;;;;;5138975;27;19947;-79
2022/09/21 04:26:18;;;;;;;;;;;8.90;99.90;;;;;;5121578;27;19923;-79
2022/09/21 04:28:44;;;;;;;;;;;8.90;99.90;;;;;;5119036;27;20412;-79
2022/09/21 04:31:09;;;;;;;;;;;8.90;99.90;;;;;;5115242;27;20018;-79
2022/09/21 04:33:35;;;;;;;;;;;8.90;99.90;;;;;;5122323;27;19923;-79
2022/09/21 04:36:01;;;;;;;;;;;8.90;99.90;;;;;;5115300;27;20224;-79
2022/09/21 04:38:26;;;;;;;;;;;8.90;99.90;;;;;;5139373;27;19923;-79
2022/09/21 04:40:56;;;;;;;;;;;8.90;99.90;;;;;;5123430;27;19965;-79
2022/09/21 04:43:22;;;;;;;;;;;8.80;99.90;;;;;;5139095;27;19923;-79
2022/09/21 04:45:47;;;;;;;;;;;8.80;99.90;;;;;;5147932;27;19930;-79
2022/09/21 04:48:13;;;;;;;;;;;8.70;99.90;;;;;;5160140;27;19930;-79
2022/09/21 04:50:38;;;;;;;;;;;8.60;99.90;;;;;;5159132;27;19959;-79
2022/09/21 04:53:04;;;;;;;;;;;8.60;99.90;;;;;;5130518;27;19927;-79
2022/09/21 04:55:30;;;;;;;;;;;8.60;99.90;;;;;;5138901;27;20347;-79
2022/09/21 04:57:56;;;;;;;;;;;8.60;99.90;;;;;;5110584;27;19927;-79
2022/09/21 05:00:22;;;;;;;;;;;8.60;99.90;;;;;;5128879;27;19968;-79
2022/09/21 05:02:47;;;;;;;;;;;8.60;99.90;;;;;;5126011;27;19923;-79
2022/09/21 05:05:13;;;;;;;;;;;8.60;99.90;;;;;;5139200;27;19929;-79
2022/09/21 05:07:38;;;;;;;;;;;8.50;99.90;;;;;;5138754;27;19927;-78
2022/09/21 05:10:04;;;;;;;;;;;8.50;99.90;;;;;;5138987;27;19927;-79
2022/09/21 05:12:30;;;;;;;;;;;8.40;99.90;;;;;;5121480;27;19985;-79
2022/09/21 05:14:56;;;;;;;;;;;8.40;99.90;;;;;;5121995;27;19954;-79
2022/09/21 05:17:22;;;;;;;;;;;8.40;99.90;;;;;;5104447;27;20370;-79
2022/09/21 05:19:48;;;;;;;;;;;8.40;99.90;;;;;;5121707;27;19923;-79
2022/09/21 05:22:13;;;;;;;;;;;8.30;99.90;;;;;;5155793;27;19981;-79
2022/09/21 05:24:39;;;;;;;;;;;8.30;99.90;;;;;;5104603;27;20839;-79
2022/09/21 05:27:04;;;;;;;;;;;8.30;99.90;;;;;;5104515;27;19923;-78
2022/09/21 05:29:30;;;;;;;;;;;8.30;99.90;;;;;;5138435;27;19924;-79
2022/09/21 05:32:05;;;;;;;;;;;8.30;99.90;;;;;;5121452;27;19923;-79
2022/09/21 05:34:42;;;;;;;;;;;8.30;99.90;;;;;;5129340;27;19927;-79
2022/09/21 05:37:18;;;;;;;;;;;8.30;99.90;;;;;;5138387;27;19923;-79
2022/09/21 05:39:44;;;;;;;;;;;8.30;99.90;;;;;;5159018;27;19988;-79
2022/09/21 05:42:09;;;;;;;;;;;8.30;99.90;;;;;;5159016;27;20374;-79
2022/09/21 05:44:35;;;;;;;;;;;8.30;99.90;;;;;;5141329;27;19977;-79
2022/09/21 05:47:03;;;;;;;;;;;8.30;99.90;;;;;;5139499;27;19991;-79
2022/09/21 05:49:39;;;;;;;;;;;8.30;99.90;;;;;;5136923;27;19923;-79
2022/09/21 05:52:26;;;;;;;;;;;8.30;99.90;;;;;;5141736;27;19990;-78
2022/09/21 05:55:10;;;;;;;;;;;8.30;99.90;;;;;;5158950;27;20375;-79
2022/09/21 05:57:45;;;;;;;;;;;8.30;99.90;;;;;;5140436;27;19929;-79
2022/09/21 06:00:18;;;;;;;;;;;8.40;99.90;;;;;;5141540;27;20287;-79
2022/09/21 06:03:02;;;;;;;;;;;8.40;99.90;;;;;;5158324;27;19922;-79
2022/09/21 06:05:28;;;;;;;;;;;8.40;99.90;;;;;;5152886;27;19930;-79
2022/09/21 06:07:53;;;;;;;;;;;8.40;99.90;;;;;;5138130;27;19931;-78
2022/09/21 06:10:19;;;;;;;;;;;8.50;99.90;;;;;;5145653;27;19982;-80
2022/09/21 06:12:44;;;;;;;;;;;8.50;99.90;;;;;;5130754;27;19986;-79
2022/09/21 06:15:11;;;;;;;;;;;8.60;99.90;;;;;;5140950;27;19923;-79
2022/09/21 06:17:37;;;;;;;;;;;8.60;99.90;;;;;;5140235;27;20032;-72
2022/09/21 06:20:03;;;;;;;;;;;8.70;99.90;;;;;;5137659;27;20383;-73
2022/09/21 06:22:28;;;;;;;;;;;8.70;99.90;;;;;;5142850;27;19971;-72
2022/09/21 06:24:54;;;;;;;;;;;8.80;99.90;;;;;;5148811;27;19938;-70
2022/09/21 06:27:19;;;;;;;;;;;8.80;99.90;;;;;;5146387;27;19983;-77
2022/09/21 06:29:45;;;;;;;;;;;8.90;99.90;;;;;;5129993;27;20013;-77
2022/09/21 06:32:11;;;;;;;;;;;9.00;99.90;;;;;;5130242;27;19923;-77
2022/09/21 06:34:36;;;;;;;;;;;9.00;99.90;;;;;;5144923;27;19923;-77
2022/09/21 06:37:02;;;;;;;;;;;9.10;99.90;;;;;;5132970;27;20386;-77
2022/09/21 06:39:28;;;;;;;;;;;9.20;99.90;;;;;;5120008;27;19927;-80
2022/09/21 06:41:54;;;;;;;;;;;9.30;99.90;;;;;;5138166;27;20000;-77
2022/09/21 06:44:19;;;;;;;;;;;9.40;99.90;;;;;;5135666;27;19931;-77
2022/09/21 06:46:45;;;;;;;;;;;9.50;99.90;;;;;;5102638;27;19923;-77
2022/09/21 06:49:10;;;;;;;;;;;9.50;99.90;;;;;;5136972;27;19981;-78
2022/09/21 06:51:36;;;;;;;;;;;9.60;99.90;;;;;;5126182;27;20025;-77
2022/09/21 06:54:01;;;;;;;;;;;9.70;99.90;;;;;;5157443;27;19922;-77
2022/09/21 06:56:27;;;;;;;;;;;9.90;99.90;;;;;;5119943;27;19923;-77
2022/09/21 06:58:53;;;;;;;;;;;9.90;99.90;;;;;;5119634;27;19923;-76
2022/09/21 07:01:19;;;;;;;;;;;10.00;99.90;;;;;;5127924;27;20285;-77
2022/09/21 07:03:48;;;;;;;;;;;10.10;99.90;;;;;;5157199;27;19922;-78
2022/09/21 07:06:14;;;;;;;;;;;10.20;99.90;;;;;;5131986;27;19930;-76
2022/09/21 07:08:41;;;;;;;;;;;10.30;99.90;;;;;;5139678;27;19972;-77
2022/09/21 07:11:07;;;;;;;;;;;10.40;99.90;;;;;;5156783;27;19977;-77
2022/09/21 07:13:32;;;;;;;;;;;10.50;99.90;;;;;;5151505;27;19962;-77
2022/09/21 07:16:01;;;;;;;;;;;10.60;99.90;;;;;;5138032;27;19923;-77
2022/09/21 07:18:27;;;;;;;;;;;10.70;99.90;;;;;;5141254;27;20398;-76
2022/09/21 07:20:53;;;;;;;;;;;10.80;99.90;;;;;;5129469;27;19933;-76
2022/09/21 07:23:19;;;;;;;;;;;10.90;99.90;;;;;;5136303;27;20294;-77
2022/09/21 07:25:51;;;;;;;;;;;11.00;99.90;;;;;;5149290;27;19970;-76
2022/09/21 07:28:17;;;;;;;;;;;11.10;99.90;;;;;;5137437;27;19924;-76
2022/09/21 07:30:43;;;;;;;;;;;11.30;99.90;;;;;;5119274;27;19927;-76
2022/09/21 07:33:08;;;;;;;;;;;11.40;99.90;;;;;;5136651;27;19930;-76
2022/09/21 07:35:34;;;;;;;;;;;11.40;99.90;;;;;;5120098;27;20417;-79
2022/09/21 07:38:01;;;;;;;;;;;11.50;99.90;;;;;;5153371;27;20358;-76
2022/09/21 07:40:26;;;;;;;;;;;11.60;99.90;;;;;;5136526;27;19930;-77
2022/09/21 07:42:56;;;;;;;;;;;11.70;99.90;;;;;;5135949;27;19923;-76
2022/09/21 07:45:21;;;;;;;;;;;11.80;99.90;;;;;;5119403;27;19931;-76
2022/09/21 07:47:47;;;;;;;;;;;12.00;99.90;;;;;;5136015;27;19923;-77
2022/09/21 07:50:13;;;;;;;;;;;12.10;99.90;;;;;;5137598;27;19923;-76
2022/09/21 07:52:38;;;;;;;;;;;12.20;99.90;;;;;;5107999;27;19974;-76
2022/09/21 07:55:04;;;;;;;;;;;12.30;99.90;;;;;;5136448;27;19927;-76
2022/09/21 08:00:16;;;;;;;;;;;12.50;99.90;;;;;;5116071;27;19923;-76
2022/09/21 08:02:41;;;;;;;;;;;12.50;99.90;;;;;;5125137;27;20374;-77
2022/09/21 08:05:07;;;;;;;;;;;12.70;99.90;;;;;;5141186;27;19923;-76
2022/09/21 08:07:34;;;;;;;;;;;12.80;99.90;;;;;;5128708;27;20397;-78
2022/09/21 08:09:59;;;;;;;;;;;12.90;99.90;;;;;;5151394;27;19923;-74
2022/09/21 08:12:25;;;;;;;;;;;13.00;99.90;;;;;;5126485;27;19923;-76
2022/09/21 08:14:50;;;;;;;;;;;13.00;99.90;;;;;;5155485;27;19991;-77
2022/09/21 08:17:16;;;;;;;;;;;13.10;99.90;;;;;;5124957;27;20022;-77
2022/09/21 08:19:41;;;;;;;;;;;13.20;99.90;;;;;;5122758;27;19930;-78
2022/09/21 08:22:07;;;;;;;;;;;13.30;99.90;;;;;;5135272;27;20006;-78
2022/09/21 08:24:33;;;;;;;;;;;13.40;99.90;;;;;;5133455;27;19945;-77
2022/09/21 08:26:59;;;;;;;;;;;13.50;99.90;;;;;;5144460;27;19923;-78
2022/09/21 08:29:25;;;;;;;;;;;13.60;99.90;;;;;;5122732;27;19929;-77
2022/09/21 08:31:52;;;;;;;;;;;13.60;99.90;;;;;;5135003;27;19924;-78
2022/09/21 08:34:18;;;;;;;;;;;13.70;99.90;;;;;;5126387;27;19923;-78
2022/09/21 08:36:44;;;;;;;;;;;13.80;99.90;;;;;;5151651;27;19930;-78
2022/09/21 08:39:10;;;;;;;;;;;13.90;99.90;;;;;;5121445;27;20308;-78
2022/09/21 08:41:39;;;;;;;;;;;14.00;99.90;;;;;;5122660;27;19930;-78
2022/09/21 08:44:19;;;;;;;;;;;14.00;99.90;;;;;;5149753;27;20431;-78
2022/09/21 08:46:47;;;;;;;;;;;14.10;99.90;;;;;;5155468;27;20239;-77
2022/09/21 08:49:16;;;;;;;;;;;14.20;99.90;;;;;;5128696;27;19923;-77
2022/09/21 08:51:46;;;;;;;;;;;14.20;99.90;;;;;;5141121;27;19930;-80
2022/09/21 08:54:15;;;;;;;;;;;14.30;99.90;;;;;;5140507;27;19929;-82
2022/09/21 08:56:41;;;;;;;;;;;14.40;99.90;;;;;;5154368;27;20320;-77
2022/09/21 08:59:10;;;;;;;;;;;14.40;99.90;;;;;;5159315;27;19923;-78
2022/09/21 09:02:02;;;;;;;;;;;14.50;99.90;;;;;;5159251;27;19966;-78
2022/09/21 09:04:41;;;;;;;;;;;14.60;99.90;;;;;;5155026;27;20409;-77
2022/09/21 09:07:23;;;;;;;;;;;14.70;99.90;;;;;;5142163;27;20401;-79
2022/09/21 09:09:55;;;;;;;;;;;14.80;99.90;;;;;;5159347;27;19923;-78
2022/09/21 09:12:39;;;;;;;;;;;14.80;99.90;;;;;;5142288;27;20370;-78
2022/09/21 09:15:24;;;;;;;;;;;14.90;99.90;;;;;;5142248;27;20013;-78
2022/09/21 09:17:56;;;;;;;;;;;15.00;99.90;;;;;;5157927;27;19994;-78
2022/09/21 09:20:30;;;;;;;;;;;15.00;99.90;;;;;;5139007;27;19927;-78
2022/09/21 09:23:03;;;;;;;;;;;15.10;99.90;;;;;;5121236;27;19923;-78
2022/09/21 09:25:33;;;;;;;;;;;15.20;99.90;;;;;;5121854;27;20382;-77
2022/09/21 09:28:04;;;;;;;;;;;15.30;99.90;;;;;;5138502;27;19927;-77
2022/09/21 09:30:32;;;;;;;;;;;15.40;99.90;;;;;;5139918;27;19923;-78
2022/09/21 09:33:12;;;;;;;;;;;15.40;99.90;;;;;;5155832;27;19931;-78
2022/09/21 09:35:38;;;;;;;;;;;15.40;99.90;;;;;;5156184;27;20035;-78
2022/09/21 09:38:16;;;;;;;;;;;15.50;99.90;;;;;;5138433;27;20011;-78
2022/09/21 09:40:54;;;;;;;;;;;15.50;99.90;;;;;;5156011;27;19923;-77
2022/09/21 09:43:45;;;;;;;;;;;15.60;99.90;;;;;;5138581;27;20294;-78
2022/09/21 09:46:28;;;;;;;;;;;15.70;99.90;;;;;;5126061;27;19970;-78
2022/09/21 09:48:56;;;;;;;;;;;15.80;99.90;;;;;;5150615;27;20378;-79
2022/09/21 09:51:22;;;;;;;;;;;15.90;99.90;;;;;;5141642;27;19923;-81
2022/09/21 09:53:48;;;;;;;;;;;16.00;99.90;;;;;;5159224;27;19975;-79
2022/09/21 09:56:15;;;;;;;;;;;16.10;99.90;;;;;;5124604;27;19934;-77
2022/09/21 09:58:45;;;;;;;;;;;16.10;99.90;;;;;;5157328;27;19923;-78
2022/09/21 10:01:30;;;;;;;;;;;16.00;99.90;;;;;;5158478;27;20441;-78
2022/09/21 10:04:07;;;;;;;;;;;16.10;99.90;;;;;;5158235;27;19926;-77
2022/09/21 10:06:33;;;;;;;;;;;16.10;99.90;;;;;;5158860;27;19967;-80
2022/09/21 10:08:58;;;;;;;;;;;16.10;99.90;;;;;;5141226;27;20017;-79
2022/09/21 10:11:33;;;;;;;;;;;16.20;99.90;;;;;;5152226;27;19927;-79
2022/09/21 10:14:06;;;;;;;;;;;16.20;99.90;;;;;;5158468;27;19930;-81
2022/09/21 10:16:31;;;;;;;;;;;16.30;99.90;;;;;;5124691;27;19922;-79
2022/09/21 10:19:00;;;;;;;;;;;16.20;99.90;;;;;;5141036;27;19930;-79
2022/09/21 10:21:36;;;;;;;;;;;16.30;99.90;;;;;;5137621;27;19923;-79
2022/09/21 10:24:04;;;;;;;;;;;16.60;99.90;;;;;;5119780;27;20032;-79
2022/09/21 10:26:50;;;;;;;;;;;16.70;99.90;;;;;;5120675;27;19923;-77
2022/09/21 10:29:17;;;;;;;;;;;16.90;99.90;;;;;;5108774;27;19942;-79
2022/09/21 10:32:02;;;;;;;;;;;17.10;99.90;;;;;;5120368;27;20374;-78
2022/09/21 10:34:29;;;;;;;;;;;17.20;99.90;;;;;;5138534;27;19966;-78
2022/09/21 10:36:56;;;;;;;;;;;17.40;99.90;;;;;;5137514;27;19996;-79
2022/09/21 10:39:31;;;;;;;;;;;17.40;99.90;;;;;;5138123;27;19923;-79
2022/09/21 10:41:59;;;;;;;;;;;17.20;99.90;;;;;;5137275;27;20382;-80
2022/09/21 10:44:26;;;;;;;;;;;17.00;99.90;;;;;;5137272;27;20301;-79
2022/09/21 10:46:52;;;;;;;;;;;16.90;99.90;;;;;;5137206;27;20043;-79
2022/09/21 10:49:27;;;;;;;;;;;17.00;99.90;;;;;;5122661;27;19974;-79
2022/09/21 10:51:55;;;;;;;;;;;17.20;99.90;;;;;;5158008;27;19923;-79
2022/09/21 10:54:31;;;;;;;;;;;17.50;99.90;;;;;;5140023;27;20005;-80
2022/09/21 10:57:00;;;;;;;;;;;17.60;99.90;;;;;;5120084;27;19923;-80
2022/09/21 10:59:27;;;;;;;;;;;17.90;99.90;;;;;;5139901;27;19926;-77
2022/09/21 11:01:54;;;;;;;;;;;18.10;99.90;;;;;;5142753;27;20343;-78
2022/09/21 11:04:39;;;;;;;;;;;18.30;99.90;;;;;;5136236;27;19978;-78
2022/09/21 11:07:21;;;;;;;;;;;18.50;99.90;;;;;;5119503;27;19927;-78
2022/09/21 11:09:49;;;;;;;;;;;18.50;99.90;;;;;;5137033;27;20370;-77
2022/09/21 11:12:34;;;;;;;;;;;18.70;99.90;;;;;;5119587;27;20018;-78
2022/09/21 11:15:19;;;;;;;;;;;18.80;99.90;;;;;;5119896;27;19923;-78
2022/09/21 11:17:56;;;;;;;;;;;19.10;99.90;;;;;;5136857;27;19933;-77
2022/09/21 11:20:40;;;;;;;;;;;19.30;99.90;;;;;;5119526;27;19974;-78
2022/09/21 11:23:17;;;;;;;;;;;19.70;99.90;;;;;;5118996;27;19945;-78
2022/09/21 11:25:45;;;;;;;;;;;20.10;99.90;;;;;;5136891;27;20275;-78
2022/09/21 11:28:12;;;;;;;;;;;20.40;99.90;;;;;;5136358;27;20023;-78
2022/09/21 11:31:04;;;;;;;;;;;20.60;99.90;;;;;;5119614;27;20255;-78
2022/09/21 11:33:39;;;;;;;;;;;20.70;99.90;;;;;;5114336;27;20442;-78
2022/09/21 11:36:07;;;;;;;;;;;21.30;99.90;;;;;;5136547;27;19927;-78
2022/09/21 11:38:51;;;;;;;;;;;21.50;99.70;;;;;;5137162;27;19988;-78
2022/09/21 11:41:35;;;;;;;;;;;21.50;99.90;;;;;;5140679;27;19931;-78
2022/09/21 11:44:07;;;;;;;;;;;21.00;99.40;;;;;;5140467;27;19923;-78
2022/09/21 11:46:57;;;;;;;;;;;20.60;99.90;;;;;;5123658;27;19934;-78
2022/09/21 11:49:31;;;;;;;;;;;20.70;99.90;;;;;;5157871;27;19945;-78
2022/09/21 11:52:00;;;;;;;;;;;20.60;98.00;;;;;;5140807;27;19923;-78
2022/09/21 11:54:41;;;;;;;;;;;20.20;99.60;;;;;;5123262;27;19931;-78
2022/09/21 11:57:10;;;;;;;;;;;19.90;99.90;;;;;;5140403;27;19923;-78
2022/09/21 11:59:38;;;;;;;;;;;20.20;99.70;;;;;;5123429;27;19927;-78
2022/09/21 12:02:22;;;;;;;;;;;20.80;99.90;;;;;;5140534;27;20014;-78
2022/09/21 12:04:50;;;;;;;;;;;21.20;99.90;;;;;;5123198;27;19923;-78
2022/09/21 12:07:43;;;;;;;;;;;21.70;99.90;;;;;;5157559;27;19923;-78
2022/09/21 12:10:28;;;;;;;;;;;22.00;99.90;;;;;;5140204;27;19968;-78
2022/09/21 12:12:59;;;;;;;;;;;22.10;98.80;;;;;;5140278;27;19923;-78
2022/09/21 12:15:31;;;;;;;;;;;22.00;98.60;;;;;;5122866;27;19931;-78
2022/09/21 12:18:16;;;;;;;;;;;21.50;98.40;;;;;;5123150;27;19930;-78
2022/09/21 12:20:51;;;;;;;;;;;21.20;99.80;;;;;;5140232;27;19966;-78
2022/09/21 12:23:22;;;;;;;;;;;20.90;99.90;;;;;;5139338;27;19923;-78
2022/09/21 12:25:53;;;;;;;;;;;21.10;99.90;;;;;;5140031;27;20362;-78
2022/09/21 12:28:27;;;;;;;;;;;21.90;99.80;;;;;;5157166;27;20018;-78
2022/09/21 12:31:19;;;;;;;;;;;22.60;97.80;;;;;;5122590;27;19923;-78
2022/09/21 12:33:57;;;;;;;;;;;23.20;94.70;;;;;;5151861;27;19995;-78
2022/09/21 12:36:26;;;;;;;;;;;23.60;93.80;;;;;;5139742;27;19923;-78
2022/09/21 12:39:06;;;;;;;;;;;24.20;92.00;;;;;;5139798;27;19923;-78
2022/09/21 12:41:36;;;;;;;;;;;24.50;96.30;;;;;;5156877;27;20321;-78
2022/09/21 12:44:04;;;;;;;;;;;24.80;93.60;;;;;;5139426;27;19922;-78
2022/09/21 12:46:30;;;;;;;;;;;25.30;94.20;;;;;;5139426;27;19923;-79
2022/09/21 12:48:57;;;;;;;;;;;25.80;95.20;;;;;;5122473;27;20381;-78
2022/09/21 12:51:27;;;;;;;;;;;26.10;94.30;;;;;;5155934;27;19923;-79
2022/09/21 12:53:54;;;;;;;;;;;26.40;94.20;;;;;;5156886;27;19923;-79
2022/09/21 12:56:33;;;;;;;;;;;26.10;93.40;;;;;;5156490;27;19923;-79
2022/09/21 12:59:18;;;;;;;;;;;26.00;92.30;;;;;;5142457;27;19923;-79
2022/09/21 13:01:50;;;;;;;;;;;24.90;92.60;;;;;;5150590;27;19927;-79
2022/09/21 13:04:25;;;;;;;;;;;23.60;92.70;;;;;;5138467;27;19923;-79
2022/09/21 13:07:02;;;;;;;;;;;23.80;94.30;;;;;;5138902;27;19981;-78
2022/09/21 13:09:29;;;;;;;;;;;23.40;95.10;;;;;;5121992;27;20086;-77
2022/09/21 13:12:01;;;;;;;;;;;23.10;95.60;;;;;;5156506;27;19998;-77
2022/09/21 13:14:28;;;;;;;;;;;22.30;95.90;;;;;;5122825;27;19923;-77
2022/09/21 13:16:56;;;;;;;;;;;21.80;96.70;;;;;;5156400;27;20030;-77
2022/09/21 13:19:23;;;;;;;;;;;21.10;97.40;;;;;;5121817;27;20358;-78
2022/09/21 13:22:11;;;;;;;;;;;20.70;97.90;;;;;;5138932;27;20011;-77
2022/09/21 13:24:36;;;;;;;;;;;20.60;98.80;;;;;;5122312;27;19933;-77
2022/09/21 13:27:06;;;;;;;;;;;20.50;99.90;;;;;;5138882;27;19923;-77
2022/09/21 13:29:33;;;;;;;;;;;20.50;99.60;;;;;;5122133;27;19970;-77
2022/09/21 13:32:02;;;;;;;;;;;20.40;99.40;;;;;;5156036;27;19949;-77
2022/09/21 13:34:29;;;;;;;;;;;21.30;99.90;;;;;;5138509;27;19923;-78
2022/09/21 13:37:10;;;;;;;;;;;22.40;97.30;;;;;;5156089;27;19973;-77
2022/09/21 13:39:36;;;;;;;;;;;23.50;96.80;;;;;;5145335;27;20335;-77
2022/09/21 13:42:20;;;;;;;;;;;24.20;95.20;;;;;;5159264;27;20358;-77
2022/09/21 13:44:47;;;;;;;;;;;24.90;95.20;;;;;;5159273;27;19923;-77
2022/09/21 13:47:13;;;;;;;;;;;25.40;93.60;;;;;;5157379;27;20315;-78
2022/09/21 13:49:50;;;;;;;;;;;25.70;91.30;;;;;;5159000;27;19966;-77
2022/09/21 13:52:16;;;;;;;;;;;25.90;91.60;;;;;;5159080;27;20018;-77
2022/09/21 13:55:08;;;;;;;;;;;26.20;91.10;;;;;;5141595;27;19974;-77
2022/09/21 13:57:38;;;;;;;;;;;26.30;90.60;;;;;;5138219;27;19968;-78
2022/09/21 14:00:11;;;;;;;;;;;26.40;91.70;;;;;;5158553;27;20449;-78
2022/09/21 14:02:41;;;;;;;;;;;26.80;91.10;;;;;;5157422;27;19922;-78
2022/09/21 14:05:27;;;;;;;;;;;27.10;90.50;;;;;;5177230;27;19927;-78
2022/09/21 14:07:58;;;;;;;;;;;27.40;89.30;;;;;;5142602;27;19923;-78
2022/09/21 14:10:24;;;;;;;;;;;27.90;90.00;;;;;;5156975;27;20026;-78
2022/09/21 14:12:50;;;;;;;;;;;28.50;90.70;;;;;;5141097;27;19922;-78
2022/09/21 14:15:17;;;;;;;;;;;28.20;85.90;;;;;;5157070;27;19923;-78
2022/09/21 14:17:43;;;;;;;;;;;27.90;86.50;;;;;;5158980;27;19927;-78
2022/09/21 14:20:29;;;;;;;;;;;27.00;87.20;;;;;;5158556;27;19930;-77
2022/09/21 14:23:13;;;;;;;;;;;25.80;89.10;;;;;;5152738;27;19923;-77
2022/09/21 14:25:55;;;;;;;;;;;26.10;91.20;;;;;;5154983;27;20312;-77
2022/09/21 14:28:27;;;;;;;;;;;26.00;88.00;;;;;;5154941;27;19923;-77
2022/09/21 14:30:59;;;;;;;;;;;26.00;87.20;;;;;;5137681;27;19923;-77
2022/09/21 14:33:27;;;;;;;;;;;26.30;88.80;;;;;;5134031;27;19966;-78
2022/09/21 14:35:53;;;;;;;;;;;26.80;87.40;;;;;;5134333;27;19967;-77
2022/09/21 14:38:19;;;;;;;;;;;27.40;87.80;;;;;;5134054;27;20341;-77
2022/09/21 14:40:47;;;;;;;;;;;27.90;84.70;;;;;;5116730;27;19931;-78